Time;durP1;ratioP1;P1;durP2;ratioP2;P2;SDS_P1;SDS_P2;PMS_P1;PMS_P2;Temp;Humidity;BMP_temperature;BMP_pressure;BME280_temperature;BME280_humidity;BME280_pressure;Samples;Min_cycle;Max_cycle;Signal;HPM_P1;HPM_P2
2023/05/04 00:01:38;;;;;;;;;;;12.60;99.90;;;;;;5076740;28;19917;-53
2023/05/04 00:04:04;;;;;;;;;;;12.60;99.90;;;;;;5077022;28;20066;-53
2023/05/04 00:06:30;;;;;;;;;;;12.60;99.90;;;;;;5076588;28;20435;-53
2023/05/04 00:08:55;;;;;;;;;;;12.70;99.90;;;;;;5076513;28;19908;-53
2023/05/04 00:11:21;;;;;;;;;;;12.60;99.90;;;;;;5077314;28;20242;-53
2023/05/04 00:13:47;;;;;;;;;;;12.70;99.90;;;;;;5076576;28;20423;-53
2023/05/04 00:16:13;;;;;;;;;;;12.70;99.90;;;;;;5076898;28;20007;-53
2023/05/04 00:18:39;;;;;;;;;;;12.60;99.90;;;;;;5076723;28;19921;-53
2023/05/04 00:21:05;;;;;;;;;;;12.60;99.90;;;;;;5076587;28;19920;-53
2023/05/04 00:23:30;;;;;;;;;;;12.60;99.90;;;;;;5076491;28;20472;-53
2023/05/04 00:25:59;;;;;;;;;;;12.60;99.90;;;;;;5076764;28;19947;-53
2023/05/04 00:28:25;;;;;;;;;;;12.50;99.90;;;;;;5076470;28;19920;-53
2023/05/04 00:30:54;;;;;;;;;;;12.50;99.90;;;;;;5076591;28;20330;-53
2023/05/04 00:33:20;;;;;;;;;;;12.60;99.90;;;;;;5076473;28;19973;-53
2023/05/04 00:35:46;;;;;;;;;;;12.50;99.90;;;;;;5076281;28;19912;-53
2023/05/04 00:38:12;;;;;;;;;;;12.50;99.90;;;;;;5076414;28;20396;-53
2023/05/04 00:40:39;;;;;;;;;;;12.40;99.90;;;;;;5058236;28;20443;-53
2023/05/04 00:43:05;;;;;;;;;;;12.40;99.90;;;;;;5076270;28;19916;-53
2023/05/04 00:45:30;;;;;;;;;;;12.50;99.90;;;;;;5058140;28;19974;-53
2023/05/04 00:47:57;;;;;;;;;;;12.50;99.90;;;;;;5058252;28;19940;-53
2023/05/04 00:50:23;;;;;;;;;;;12.50;99.90;;;;;;5076034;28;19912;-53
2023/05/04 00:52:49;;;;;;;;;;;12.50;99.90;;;;;;5058054;28;19950;-53
2023/05/04 00:55:15;;;;;;;;;;;12.50;99.90;;;;;;5076041;28;19912;-53
2023/05/04 00:57:41;;;;;;;;;;;12.40;99.90;;;;;;5076040;28;19919;-53
2023/05/04 01:00:12;;;;;;;;;;;12.50;99.90;;;;;;5057764;28;20003;-53
2023/05/04 01:02:38;;;;;;;;;;;12.50;99.90;;;;;;5057960;28;19923;-53
2023/05/04 01:05:05;;;;;;;;;;;12.40;99.90;;;;;;5057572;28;19964;-53
2023/05/04 01:07:42;;;;;;;;;;;12.40;99.90;;;;;;5075833;28;19912;-53
2023/05/04 01:10:11;;;;;;;;;;;12.40;99.90;;;;;;5075594;28;19923;-53
2023/05/04 01:12:39;;;;;;;;;;;12.50;99.90;;;;;;5075649;28;19934;-53
2023/05/04 01:15:07;;;;;;;;;;;12.50;99.90;;;;;;5075636;28;19920;-53
2023/05/04 01:17:32;;;;;;;;;;;12.50;99.90;;;;;;5057325;28;19924;-54
2023/05/04 01:19:58;;;;;;;;;;;12.50;99.90;;;;;;5075623;28;19925;-53
2023/05/04 01:22:24;;;;;;;;;;;12.30;99.90;;;;;;5075693;28;19912;-53
2023/05/04 01:24:50;;;;;;;;;;;12.20;99.90;;;;;;5075405;28;20370;-53
2023/05/04 01:27:20;;;;;;;;;;;12.30;99.90;;;;;;5075529;28;19913;-53
2023/05/04 01:29:55;;;;;;;;;;;12.30;99.90;;;;;;5075399;28;20372;-53
2023/05/04 01:32:21;;;;;;;;;;;12.30;99.90;;;;;;5075214;28;19962;-53
2023/05/04 01:34:47;;;;;;;;;;;12.30;99.90;;;;;;5075361;28;20392;-53
2023/05/04 01:37:13;;;;;;;;;;;12.30;99.90;;;;;;5075567;28;19908;-53
2023/05/04 01:39:39;;;;;;;;;;;12.30;99.90;;;;;;5075099;28;19912;-53
2023/05/04 01:42:06;;;;;;;;;;;12.30;99.90;;;;;;5075189;28;19927;-53
2023/05/04 01:44:32;;;;;;;;;;;12.30;99.90;;;;;;5075135;28;19919;-53
2023/05/04 01:46:57;;;;;;;;;;;12.30;99.90;;;;;;5075107;28;19917;-53
2023/05/04 01:49:23;;;;;;;;;;;12.30;99.90;;;;;;5057172;28;19912;-53
2023/05/04 01:51:49;;;;;;;;;;;12.40;99.90;;;;;;5075123;28;20346;-53
2023/05/04 01:54:15;;;;;;;;;;;12.40;99.90;;;;;;5074980;28;19967;-53
2023/05/04 01:56:41;;;;;;;;;;;12.40;99.90;;;;;;5075089;28;19912;-53
2023/05/04 01:59:06;;;;;;;;;;;12.30;99.90;;;;;;5056964;28;19958;-53
2023/05/04 02:01:32;;;;;;;;;;;12.30;99.90;;;;;;5056954;28;19961;-53
2023/05/04 02:03:58;;;;;;;;;;;12.30;99.90;;;;;;5057042;28;20290;-53
2023/05/04 02:06:24;;;;;;;;;;;12.40;99.90;;;;;;5074869;28;19909;-53
2023/05/04 02:08:50;;;;;;;;;;;12.40;99.90;;;;;;5056658;28;20026;-53
2023/05/04 02:11:15;;;;;;;;;;;12.30;99.90;;;;;;5074917;28;20434;-53
2023/05/04 02:13:41;;;;;;;;;;;12.30;99.90;;;;;;5074777;28;20377;-53
2023/05/04 02:16:07;;;;;;;;;;;12.30;99.90;;;;;;5074789;28;19916;-53
2023/05/04 02:18:33;;;;;;;;;;;12.40;99.90;;;;;;5074501;28;19963;-54
2023/05/04 02:20:59;;;;;;;;;;;12.40;99.90;;;;;;5090262;28;19959;-53
2023/05/04 02:23:25;;;;;;;;;;;12.30;99.90;;;;;;5056652;28;19919;-53
2023/05/04 02:25:54;;;;;;;;;;;12.20;99.90;;;;;;5056649;28;19920;-53
2023/05/04 02:28:20;;;;;;;;;;;12.20;99.90;;;;;;5074416;28;19912;-53
2023/05/04 02:30:46;;;;;;;;;;;12.20;99.90;;;;;;5076328;28;19976;-53
2023/05/04 02:33:12;;;;;;;;;;;12.20;99.90;;;;;;5060793;28;20346;-53
2023/05/04 02:35:38;;;;;;;;;;;12.20;99.90;;;;;;5078829;28;20377;-53
2023/05/04 02:38:04;;;;;;;;;;;12.20;99.90;;;;;;5060694;28;20422;-53
2023/05/04 02:40:31;;;;;;;;;;;12.10;99.90;;;;;;5060560;28;19936;-53
2023/05/04 02:42:57;;;;;;;;;;;12.10;99.90;;;;;;5078511;28;20411;-53
2023/05/04 02:45:22;;;;;;;;;;;12.10;99.90;;;;;;5078606;28;19920;-53
2023/05/04 02:47:48;;;;;;;;;;;12.00;99.90;;;;;;5078542;28;19920;-53
2023/05/04 02:50:14;;;;;;;;;;;11.90;99.90;;;;;;5078372;28;20009;-53
2023/05/04 02:52:40;;;;;;;;;;;11.90;99.90;;;;;;5078366;28;19916;-53
2023/05/04 02:55:06;;;;;;;;;;;11.90;99.90;;;;;;5078403;28;19912;-53
2023/05/04 02:57:31;;;;;;;;;;;11.90;99.90;;;;;;5078030;28;19912;-53
2023/05/04 02:59:57;;;;;;;;;;;11.80;99.90;;;;;;5078379;28;20171;-53
2023/05/04 03:02:23;;;;;;;;;;;11.80;99.90;;;;;;5060209;28;19912;-53
2023/05/04 03:04:49;;;;;;;;;;;11.70;99.90;;;;;;5093569;28;19912;-53
2023/05/04 03:07:15;;;;;;;;;;;11.60;99.90;;;;;;5078112;28;20007;-53
2023/05/04 03:09:41;;;;;;;;;;;11.60;99.90;;;;;;5060158;28;20007;-53
2023/05/04 03:12:06;;;;;;;;;;;11.50;99.90;;;;;;5077846;28;19964;-53
2023/05/04 03:14:32;;;;;;;;;;;11.50;99.90;;;;;;5060121;28;20063;-53
2023/05/04 03:16:58;;;;;;;;;;;11.50;99.90;;;;;;5059952;28;19919;-53
2023/05/04 03:19:24;;;;;;;;;;;11.40;99.90;;;;;;5059809;28;20022;-53
2023/05/04 03:21:50;;;;;;;;;;;11.40;99.90;;;;;;5059816;28;19916;-53
2023/05/04 03:24:17;;;;;;;;;;;11.40;99.90;;;;;;5059778;28;19912;-54
2023/05/04 03:26:43;;;;;;;;;;;11.50;99.90;;;;;;5060057;28;19919;-53
2023/05/04 03:29:09;;;;;;;;;;;11.50;99.90;;;;;;5059627;28;20357;-53
2023/05/04 03:31:35;;;;;;;;;;;11.50;99.90;;;;;;5077631;28;19923;-53
2023/05/04 03:34:02;;;;;;;;;;;11.60;99.90;;;;;;5077747;28;19912;-53
2023/05/04 03:36:28;;;;;;;;;;;11.60;99.90;;;;;;5077789;28;19920;-53
2023/05/04 03:38:54;;;;;;;;;;;11.60;99.90;;;;;;5059466;28;20202;-53
2023/05/04 03:41:20;;;;;;;;;;;11.60;99.90;;;;;;5076830;28;19916;-53
2023/05/04 03:43:46;;;;;;;;;;;11.50;99.90;;;;;;5058771;28;19939;-53
2023/05/04 03:46:12;;;;;;;;;;;11.50;99.90;;;;;;5059416;28;19912;-53
2023/05/04 03:48:38;;;;;;;;;;;11.50;99.90;;;;;;5077381;28;19916;-53
2023/05/04 03:51:07;;;;;;;;;;;11.40;99.90;;;;;;5059300;28;19926;-53
2023/05/04 03:53:34;;;;;;;;;;;11.40;99.90;;;;;;5077176;28;19912;-53
2023/05/04 03:56:01;;;;;;;;;;;11.30;99.90;;;;;;5059241;28;20408;-53
2023/05/04 03:58:28;;;;;;;;;;;11.40;99.90;;;;;;5059154;28;19921;-53
2023/05/04 04:00:56;;;;;;;;;;;11.30;99.90;;;;;;5058886;28;19916;-53
2023/05/04 04:03:21;;;;;;;;;;;11.30;99.90;;;;;;5059130;28;20293;-53
2023/05/04 04:05:47;;;;;;;;;;;11.40;99.90;;;;;;5077028;28;19912;-53
2023/05/04 04:08:13;;;;;;;;;;;11.40;99.90;;;;;;5058759;28;19916;-53
2023/05/04 04:10:40;;;;;;;;;;;11.50;99.90;;;;;;5058758;28;20373;-53
2023/05/04 04:13:05;;;;;;;;;;;11.50;99.90;;;;;;5076788;28;20380;-53
2023/05/04 04:15:31;;;;;;;;;;;11.50;99.90;;;;;;5076658;28;19912;-53
2023/05/04 04:17:57;;;;;;;;;;;11.50;99.90;;;;;;5076691;28;19939;-53
2023/05/04 04:20:23;;;;;;;;;;;11.60;99.90;;;;;;5076581;28;20020;-53
2023/05/04 04:22:48;;;;;;;;;;;11.70;99.90;;;;;;5076607;28;19928;-53
2023/05/04 04:25:14;;;;;;;;;;;11.70;99.90;;;;;;5076706;28;20320;-53
2023/05/04 04:27:40;;;;;;;;;;;11.70;99.90;;;;;;5076700;28;19916;-53
2023/05/04 04:30:06;;;;;;;;;;;11.80;99.90;;;;;;5076398;28;19913;-53
2023/05/04 04:32:32;;;;;;;;;;;11.80;99.90;;;;;;5076525;28;20001;-53
2023/05/04 04:34:59;;;;;;;;;;;11.70;99.90;;;;;;5076531;28;19955;-53
2023/05/04 04:37:25;;;;;;;;;;;11.80;99.90;;;;;;5076350;28;19917;-53
2023/05/04 04:39:50;;;;;;;;;;;11.90;99.90;;;;;;5076841;28;19916;-53
2023/05/04 04:42:16;;;;;;;;;;;12.00;99.90;;;;;;5076222;28;19991;-53
2023/05/04 04:44:43;;;;;;;;;;;12.10;99.90;;;;;;5076187;28;19912;-53
2023/05/04 04:47:09;;;;;;;;;;;12.10;99.90;;;;;;5076186;28;19923;-53
2023/05/04 04:49:34;;;;;;;;;;;12.10;99.90;;;;;;5076017;28;19916;-53
2023/05/04 04:52:00;;;;;;;;;;;12.00;99.90;;;;;;5075922;28;19908;-54
2023/05/04 04:54:26;;;;;;;;;;;12.10;99.90;;;;;;5075696;28;19920;-53
2023/05/04 04:56:52;;;;;;;;;;;12.10;99.90;;;;;;5075948;28;19912;-53
2023/05/04 04:59:19;;;;;;;;;;;12.20;99.90;;;;;;5076070;28;20053;-53
2023/05/04 05:01:45;;;;;;;;;;;12.20;99.90;;;;;;5075927;28;19959;-53
2023/05/04 05:04:11;;;;;;;;;;;12.20;99.90;;;;;;5076019;28;19920;-53
2023/05/04 05:06:37;;;;;;;;;;;12.30;99.90;;;;;;5075644;28;19954;-53
2023/05/04 05:09:03;;;;;;;;;;;12.30;99.90;;;;;;5075468;28;19912;-53
2023/05/04 05:11:29;;;;;;;;;;;12.40;99.90;;;;;;5075678;28;19913;-53
2023/05/04 05:13:55;;;;;;;;;;;12.50;99.90;;;;;;5075749;28;19960;-53
2023/05/04 05:16:20;;;;;;;;;;;12.60;99.90;;;;;;5075433;28;20030;-53
2023/05/04 05:18:46;;;;;;;;;;;12.60;99.90;;;;;;5075305;28;19960;-53
2023/05/04 05:21:12;;;;;;;;;;;12.70;99.90;;;;;;5075362;28;19986;-53
2023/05/04 05:23:38;;;;;;;;;;;12.70;99.90;;;;;;5069160;28;19974;-53
2023/05/04 05:26:04;;;;;;;;;;;12.70;99.90;;;;;;5074729;28;19916;-53
2023/05/04 05:28:30;;;;;;;;;;;12.80;99.90;;;;;;5075194;28;19917;-53
2023/05/04 05:30:56;;;;;;;;;;;12.80;99.90;;;;;;5075020;28;20010;-53
2023/05/04 05:33:22;;;;;;;;;;;12.80;99.90;;;;;;5075004;28;19913;-53
2023/05/04 05:35:48;;;;;;;;;;;13.00;99.90;;;;;;5074842;28;19941;-53
2023/05/04 05:38:15;;;;;;;;;;;13.10;99.90;;;;;;5074710;28;19912;-53
2023/05/04 05:40:40;;;;;;;;;;;13.30;99.90;;;;;;5074943;28;20365;-53
2023/05/04 05:43:06;;;;;;;;;;;13.40;99.90;;;;;;5075229;28;19920;-54
2023/05/04 05:45:32;;;;;;;;;;;13.50;99.90;;;;;;5074622;28;19912;-54
2023/05/04 05:47:58;;;;;;;;;;;13.60;99.90;;;;;;5074740;28;19913;-54
2023/05/04 05:50:24;;;;;;;;;;;13.80;99.90;;;;;;5074947;28;19912;-54
2023/05/04 05:52:50;;;;;;;;;;;14.10;99.90;;;;;;5074516;28;19991;-53
2023/05/04 05:55:16;;;;;;;;;;;14.20;99.90;;;;;;5056307;28;19908;-54
2023/05/04 05:57:44;;;;;;;;;;;14.50;99.90;;;;;;5073953;28;19919;-54
2023/05/04 06:00:11;;;;;;;;;;;14.70;99.90;;;;;;5075395;28;19917;-54
2023/05/04 06:02:40;;;;;;;;;;;14.90;99.90;;;;;;5073964;28;20372;-55
2023/05/04 06:05:06;;;;;;;;;;;15.10;99.90;;;;;;5074695;28;20154;-55
2023/05/04 06:07:32;;;;;;;;;;;15.30;99.90;;;;;;5074652;28;20003;-55
2023/05/04 06:09:58;;;;;;;;;;;15.30;99.90;;;;;;5074539;28;19959;-56
2023/05/04 06:12:24;;;;;;;;;;;15.20;99.90;;;;;;5074837;28;19912;-54
2023/05/04 06:14:50;;;;;;;;;;;15.20;99.90;;;;;;5074502;28;19916;-54
2023/05/04 06:17:20;;;;;;;;;;;15.30;99.90;;;;;;5071446;28;19912;-55
2023/05/04 06:19:46;;;;;;;;;;;15.30;99.90;;;;;;5072931;28;19924;-55
2023/05/04 06:22:13;;;;;;;;;;;15.30;99.90;;;;;;5069744;28;19916;-54
2023/05/04 06:24:40;;;;;;;;;;;15.40;99.90;;;;;;5070351;28;19939;-54
2023/05/04 06:27:06;;;;;;;;;;;15.50;99.90;;;;;;5066427;28;20309;-54
2023/05/04 06:29:32;;;;;;;;;;;15.60;99.90;;;;;;5071772;28;19913;-54
2023/05/04 06:31:57;;;;;;;;;;;15.70;99.90;;;;;;5074558;28;20374;-54
2023/05/04 06:34:23;;;;;;;;;;;15.70;99.90;;;;;;5067720;28;19916;-54
2023/05/04 06:36:49;;;;;;;;;;;15.70;99.90;;;;;;5062170;28;19916;-55
2023/05/04 06:39:15;;;;;;;;;;;15.70;99.90;;;;;;5054344;28;19921;-54
2023/05/04 06:41:41;;;;;;;;;;;15.80;99.90;;;;;;5054061;28;20003;-54
2023/05/04 06:44:07;;;;;;;;;;;15.80;99.90;;;;;;5054310;28;19913;-54
2023/05/04 06:46:38;;;;;;;;;;;15.90;99.90;;;;;;5054192;28;19913;-54
2023/05/04 06:49:04;;;;;;;;;;;16.00;99.90;;;;;;5069273;28;19913;-54
2023/05/04 06:51:30;;;;;;;;;;;16.00;99.90;;;;;;5054155;28;19916;-54
2023/05/04 06:54:00;;;;;;;;;;;16.10;99.90;;;;;;5069677;28;19952;-54
2023/05/04 06:56:26;;;;;;;;;;;16.20;99.90;;;;;;5054329;28;19952;-54
2023/05/04 06:58:52;;;;;;;;;;;16.30;99.90;;;;;;5054118;28;19912;-54
2023/05/04 07:01:18;;;;;;;;;;;16.50;99.90;;;;;;5053977;28;19916;-54
2023/05/04 07:03:49;;;;;;;;;;;16.60;99.90;;;;;;5063350;28;19924;-54
2023/05/04 07:06:51;;;;;;;;;;;16.70;99.90;;;;;;5054252;28;19924;-54
2023/05/04 07:09:21;;;;;;;;;;;17.00;99.90;;;;;;5058804;28;19920;-54
2023/05/04 07:11:47;;;;;;;;;;;17.20;99.90;;;;;;5068554;28;19939;-54
2023/05/04 07:14:14;;;;;;;;;;;17.40;99.90;;;;;;5073634;28;19912;-54
2023/05/04 07:16:39;;;;;;;;;;;17.70;99.90;;;;;;5067170;28;20027;-55
2023/05/04 07:19:05;;;;;;;;;;;18.10;99.90;;;;;;5064581;28;19964;-55
2023/05/04 07:21:31;;;;;;;;;;;17.60;99.90;;;;;;5077574;28;19916;-55
2023/05/04 07:24:00;;;;;;;;;;;18.00;99.90;;;;;;5070193;28;19966;-55
2023/05/04 07:26:26;;;;;;;;;;;17.70;97.90;;;;;;5072141;28;19993;-55
2023/05/04 07:28:52;;;;;;;;;;;17.40;99.90;;;;;;5062957;28;19917;-55
2023/05/04 07:31:17;;;;;;;;;;;17.90;99.70;;;;;;5074728;28;19935;-55
2023/05/04 07:33:43;;;;;;;;;;;18.10;98.30;;;;;;5075440;28;20130;-55
2023/05/04 07:36:09;;;;;;;;;;;18.10;96.90;;;;;;5076981;28;19943;-55
2023/05/04 07:38:35;;;;;;;;;;;18.20;97.90;;;;;;5069878;28;19931;-55
2023/05/04 07:41:01;;;;;;;;;;;18.00;98.10;;;;;;5056473;28;20321;-55
2023/05/04 07:43:27;;;;;;;;;;;17.90;99.30;;;;;;5058307;28;20004;-55
2023/05/04 07:45:53;;;;;;;;;;;17.90;99.60;;;;;;5076678;28;19947;-55
2023/05/04 07:48:19;;;;;;;;;;;17.80;99.90;;;;;;5077067;28;19942;-55
2023/05/04 07:50:45;;;;;;;;;;;17.70;99.90;;;;;;5071700;28;19981;-55
2023/05/04 07:53:11;;;;;;;;;;;17.60;99.90;;;;;;5063769;28;19913;-54
2023/05/04 07:55:37;;;;;;;;;;;17.50;99.90;;;;;;5071707;28;19970;-55
2023/05/04 07:58:03;;;;;;;;;;;17.30;99.90;;;;;;5077612;28;19916;-53
2023/05/04 08:00:29;;;;;;;;;;;17.10;99.90;;;;;;5076940;28;19920;-54
2023/05/04 08:02:55;;;;;;;;;;;17.10;99.90;;;;;;5077018;28;19938;-53
2023/05/04 08:05:21;;;;;;;;;;;17.00;99.90;;;;;;5077104;28;19919;-53
2023/05/04 08:07:47;;;;;;;;;;;17.00;99.90;;;;;;5076527;28;20361;-54
2023/05/04 08:10:13;;;;;;;;;;;16.90;99.90;;;;;;5075245;28;20384;-54
2023/05/04 08:12:39;;;;;;;;;;;16.90;99.90;;;;;;5069896;28;19916;-54
2023/05/04 08:15:05;;;;;;;;;;;16.90;99.90;;;;;;5068745;28;20037;-53
2023/05/04 08:17:31;;;;;;;;;;;17.00;99.90;;;;;;5057990;28;19916;-54
2023/05/04 08:19:57;;;;;;;;;;;17.10;99.90;;;;;;5076854;28;19923;-53
2023/05/04 08:22:23;;;;;;;;;;;17.20;99.90;;;;;;5076388;28;20429;-53
2023/05/04 08:24:49;;;;;;;;;;;17.20;99.90;;;;;;5075829;28;19916;-53
2023/05/04 08:27:15;;;;;;;;;;;17.30;99.90;;;;;;5061493;28;19920;-53
2023/05/04 08:29:40;;;;;;;;;;;17.30;99.90;;;;;;5074978;28;19922;-53
2023/05/04 08:32:07;;;;;;;;;;;17.50;99.90;;;;;;5066827;28;19916;-53
2023/05/04 08:34:33;;;;;;;;;;;17.50;99.90;;;;;;5065097;28;19913;-54
2023/05/04 08:36:59;;;;;;;;;;;17.50;99.90;;;;;;5071192;28;19962;-54
2023/05/04 08:39:25;;;;;;;;;;;17.50;99.90;;;;;;5075985;28;19912;-53
2023/05/04 08:41:51;;;;;;;;;;;17.50;99.90;;;;;;5075752;28;19916;-54
2023/05/04 08:44:19;;;;;;;;;;;17.60;99.90;;;;;;5075884;28;19919;-53
2023/05/04 08:46:51;;;;;;;;;;;17.70;99.90;;;;;;5075613;28;19916;-54
2023/05/04 08:49:17;;;;;;;;;;;17.80;99.90;;;;;;5071924;28;19921;-54
2023/05/04 08:51:45;;;;;;;;;;;17.60;99.90;;;;;;5069118;28;19940;-54
2023/05/04 08:54:11;;;;;;;;;;;17.70;99.90;;;;;;5059682;28;19917;-54
2023/05/04 08:56:38;;;;;;;;;;;17.70;99.90;;;;;;5055746;28;19962;-54
2023/05/04 08:59:05;;;;;;;;;;;17.80;99.90;;;;;;5055573;28;19913;-54
2023/05/04 09:01:31;;;;;;;;;;;17.70;99.90;;;;;;5055196;28;20386;-54
2023/05/04 09:03:59;;;;;;;;;;;17.70;99.90;;;;;;5074436;28;19912;-54
2023/05/04 09:06:26;;;;;;;;;;;17.70;99.90;;;;;;5075520;28;19986;-54
2023/05/04 09:08:51;;;;;;;;;;;17.70;99.90;;;;;;5075278;28;19920;-54
2023/05/04 09:11:17;;;;;;;;;;;17.60;99.90;;;;;;5075823;28;19913;-54
2023/05/04 09:13:43;;;;;;;;;;;17.60;99.90;;;;;;5070690;28;19917;-54
2023/05/04 09:16:09;;;;;;;;;;;17.60;99.90;;;;;;5069858;28;19997;-54
2023/05/04 09:18:36;;;;;;;;;;;17.60;99.90;;;;;;5075134;28;20372;-54
2023/05/04 09:21:02;;;;;;;;;;;17.50;99.90;;;;;;5068420;28;19920;-55
2023/05/04 09:23:30;;;;;;;;;;;17.40;99.90;;;;;;5071340;28;20355;-55
2023/05/04 09:25:58;;;;;;;;;;;17.50;99.90;;;;;;5070040;28;20298;-55
2023/05/04 09:28:34;;;;;;;;;;;17.50;99.90;;;;;;5074245;28;19912;-55
2023/05/04 09:31:01;;;;;;;;;;;17.50;99.90;;;;;;5074538;28;19930;-55
2023/05/04 09:33:27;;;;;;;;;;;17.60;99.90;;;;;;5074450;28;20016;-55
2023/05/04 09:35:53;;;;;;;;;;;17.60;99.90;;;;;;5074447;28;19978;-55
2023/05/04 09:38:26;;;;;;;;;;;17.70;99.90;;;;;;5074261;28;19948;-55
2023/05/04 09:40:52;;;;;;;;;;;17.70;99.90;;;;;;5074031;28;19924;-55
2023/05/04 09:43:18;;;;;;;;;;;17.80;99.90;;;;;;5071659;28;19917;-55
2023/05/04 09:45:45;;;;;;;;;;;18.00;99.90;;;;;;5074332;28;20298;-53
2023/05/04 09:48:15;;;;;;;;;;;18.00;99.90;;;;;;5073393;28;19913;-53
2023/05/04 09:50:46;;;;;;;;;;;18.00;99.90;;;;;;5073949;28;19950;-53
2023/05/04 09:53:12;;;;;;;;;;;18.00;99.90;;;;;;5073728;28;19912;-54
2023/05/04 09:55:45;;;;;;;;;;;18.20;99.90;;;;;;5074205;28;19923;-54
2023/05/04 09:58:15;;;;;;;;;;;18.30;99.90;;;;;;5074630;28;20431;-54
2023/05/04 10:00:42;;;;;;;;;;;18.30;99.90;;;;;;5075306;28;20503;-54
2023/05/04 10:03:08;;;;;;;;;;;18.40;99.90;;;;;;5075458;28;19913;-53
2023/05/04 10:05:37;;;;;;;;;;;18.70;99.90;;;;;;5075384;28;19939;-54
2023/05/04 10:08:03;;;;;;;;;;;18.70;99.40;;;;;;5075349;28;19913;-54
2023/05/04 10:10:29;;;;;;;;;;;18.40;97.90;;;;;;5075113;28;19913;-54
2023/05/04 10:12:55;;;;;;;;;;;18.30;98.20;;;;;;5074454;28;19917;-54
2023/05/04 10:15:22;;;;;;;;;;;18.00;98.00;;;;;;5074232;28;19916;-54
2023/05/04 10:17:50;;;;;;;;;;;18.20;98.70;;;;;;5070113;28;19923;-54
2023/05/04 10:20:32;;;;;;;;;;;18.40;99.00;;;;;;5073609;28;19912;-53
2023/05/04 10:23:07;;;;;;;;;;;18.20;99.20;;;;;;5066262;28;19913;-54
2023/05/04 10:25:45;;;;;;;;;;;18.20;99.10;;;;;;5071494;28;19962;-54
2023/05/04 10:28:17;;;;;;;;;;;18.20;98.70;;;;;;5074615;28;19916;-54
2023/05/04 10:30:44;;;;;;;;;;;18.20;98.30;;;;;;5075348;28;19912;-54
2023/05/04 10:33:09;;;;;;;;;;;18.20;97.40;;;;;;5074817;28;19999;-54
2023/05/04 10:35:36;;;;;;;;;;;18.20;97.50;;;;;;5074443;28;19958;-54
2023/05/04 10:38:07;;;;;;;;;;;18.40;95.90;;;;;;5074233;28;19916;-53
2023/05/04 10:40:37;;;;;;;;;;;18.30;95.70;;;;;;5074214;28;19923;-54
2023/05/04 10:43:03;;;;;;;;;;;18.30;96.00;;;;;;5074456;28;19908;-53
2023/05/04 10:45:39;;;;;;;;;;;18.50;95.80;;;;;;5074214;28;19939;-54
2023/05/04 10:48:05;;;;;;;;;;;18.80;95.60;;;;;;5074235;28;19912;-54
2023/05/04 10:50:40;;;;;;;;;;;18.70;94.40;;;;;;5074208;28;19963;-53
2023/05/04 10:53:06;;;;;;;;;;;18.70;95.60;;;;;;5076870;28;19963;-54
2023/05/04 10:55:42;;;;;;;;;;;18.90;94.50;;;;;;5077507;28;19935;-54
2023/05/04 10:58:10;;;;;;;;;;;19.00;95.40;;;;;;5076879;28;19920;-54
2023/05/04 11:00:39;;;;;;;;;;;19.00;93.30;;;;;;5077796;28;19943;-53
2023/05/04 11:03:06;;;;;;;;;;;19.10;93.10;;;;;;5078170;28;19962;-53
2023/05/04 11:05:42;;;;;;;;;;;19.20;93.00;;;;;;5077842;28;19998;-54
2023/05/04 11:08:33;;;;;;;;;;;19.10;92.30;;;;;;5077763;28;19997;-53
2023/05/04 11:11:03;;;;;;;;;;;19.20;92.30;;;;;;5074971;28;19913;-54
2023/05/04 11:13:30;;;;;;;;;;;19.00;93.90;;;;;;5077607;28;19916;-53
2023/05/04 11:15:56;;;;;;;;;;;19.10;94.10;;;;;;5077710;28;19935;-54
2023/05/04 11:18:38;;;;;;;;;;;19.00;93.80;;;;;;5077742;28;20019;-54
2023/05/04 11:21:04;;;;;;;;;;;18.50;95.80;;;;;;5077541;28;20251;-53
2023/05/04 11:23:30;;;;;;;;;;;18.60;96.70;;;;;;5077737;28;20290;-53
2023/05/04 11:25:55;;;;;;;;;;;18.60;97.90;;;;;;5077721;28;19961;-53
2023/05/04 11:28:37;;;;;;;;;;;18.30;99.50;;;;;;5077474;28;19919;-53
2023/05/04 11:31:13;;;;;;;;;;;18.20;99.30;;;;;;5059502;28;19913;-53
2023/05/04 11:33:43;;;;;;;;;;;18.10;99.90;;;;;;5077565;28;19952;-53
2023/05/04 11:36:10;;;;;;;;;;;17.90;99.90;;;;;;5077418;28;20362;-53
2023/05/04 11:38:36;;;;;;;;;;;17.70;99.90;;;;;;5075383;28;19922;-53
2023/05/04 11:41:02;;;;;;;;;;;17.70;99.90;;;;;;5076892;28;19912;-53
2023/05/04 11:43:29;;;;;;;;;;;17.60;99.90;;;;;;5077593;28;19913;-53
2023/05/04 11:45:58;;;;;;;;;;;17.50;99.90;;;;;;5077291;28;19960;-53
2023/05/04 11:48:24;;;;;;;;;;;17.50;99.90;;;;;;5077100;28;19916;-53
2023/05/04 11:50:50;;;;;;;;;;;17.40;99.90;;;;;;5077110;28;20209;-54
2023/05/04 11:53:20;;;;;;;;;;;17.50;99.90;;;;;;5077552;28;19912;-54
2023/05/04 11:55:48;;;;;;;;;;;17.50;99.90;;;;;;5076850;28;20548;-53
2023/05/04 11:58:14;;;;;;;;;;;17.60;99.90;;;;;;5076941;28;19912;-53
2023/05/04 12:00:41;;;;;;;;;;;17.70;99.90;;;;;;5077011;28;19916;-53
2023/05/04 12:03:10;;;;;;;;;;;17.60;99.90;;;;;;5075686;28;19924;-53
2023/05/04 12:05:36;;;;;;;;;;;17.70;99.90;;;;;;5076542;28;19923;-54
2023/05/04 12:08:03;;;;;;;;;;;17.90;99.90;;;;;;5076885;28;19913;-53
2023/05/04 12:10:33;;;;;;;;;;;18.10;99.90;;;;;;5076822;28;19935;-54
2023/05/04 12:13:02;;;;;;;;;;;18.20;98.20;;;;;;5076667;28;20364;-53
2023/05/04 12:15:33;;;;;;;;;;;18.40;98.90;;;;;;5076753;28;19967;-54
2023/05/04 12:17:58;;;;;;;;;;;18.60;98.40;;;;;;5076236;28;20356;-53
2023/05/04 12:20:33;;;;;;;;;;;18.70;97.60;;;;;;5076541;28;19959;-53
2023/05/04 12:23:05;;;;;;;;;;;18.70;97.40;;;;;;5076732;28;19912;-53
2023/05/04 12:25:42;;;;;;;;;;;18.40;97.10;;;;;;5076533;28;19912;-53
2023/05/04 12:28:08;;;;;;;;;;;18.40;96.90;;;;;;5075851;28;19912;-54
2023/05/04 12:30:33;;;;;;;;;;;19.10;96.80;;;;;;5076388;28;19982;-54
2023/05/04 12:32:59;;;;;;;;;;;19.40;96.30;;;;;;5076573;28;20366;-53
2023/05/04 12:35:25;;;;;;;;;;;19.60;97.60;;;;;;5076287;28;19916;-53
2023/05/04 12:37:51;;;;;;;;;;;19.60;98.10;;;;;;5076336;28;20354;-53
2023/05/04 12:40:17;;;;;;;;;;;19.50;96.90;;;;;;5076136;28;19916;-53
2023/05/04 12:42:43;;;;;;;;;;;19.40;97.80;;;;;;5076226;28;20007;-53
2023/05/04 12:45:09;;;;;;;;;;;19.40;97.90;;;;;;5075994;28;19955;-53
2023/05/04 12:47:35;;;;;;;;;;;19.40;99.00;;;;;;5076072;28;19919;-53
2023/05/04 12:50:03;;;;;;;;;;;19.30;99.10;;;;;;5076116;28;19912;-53
2023/05/04 12:52:31;;;;;;;;;;;19.10;99.90;;;;;;5075947;28;19984;-53
2023/05/04 12:54:57;;;;;;;;;;;19.10;99.60;;;;;;5075969;28;19955;-53
2023/05/04 12:57:23;;;;;;;;;;;19.10;99.60;;;;;;5075857;28;19916;-53
2023/05/04 12:59:48;;;;;;;;;;;19.00;97.90;;;;;;5075914;28;19956;-53
2023/05/04 13:02:14;;;;;;;;;;;18.90;98.50;;;;;;5075846;28;19917;-53
2023/05/04 13:04:40;;;;;;;;;;;19.00;98.40;;;;;;5075440;28;19916;-53
2023/05/04 13:07:06;;;;;;;;;;;18.90;98.10;;;;;;5075676;28;19923;-53
2023/05/04 13:09:32;;;;;;;;;;;18.80;99.30;;;;;;5075491;28;19913;-53
2023/05/04 13:11:58;;;;;;;;;;;18.80;99.90;;;;;;5075503;28;19952;-53
2023/05/04 13:14:23;;;;;;;;;;;18.90;99.90;;;;;;5076455;28;19916;-53
2023/05/04 13:16:50;;;;;;;;;;;18.90;99.90;;;;;;5095652;28;19915;-53
2023/05/04 13:19:16;;;;;;;;;;;18.90;99.90;;;;;;5095609;28;20354;-53
2023/05/04 13:21:42;;;;;;;;;;;19.00;99.90;;;;;;5095624;28;19917;-53
2023/05/04 13:24:10;;;;;;;;;;;19.10;99.90;;;;;;5096077;28;19912;-53
2023/05/04 13:26:35;;;;;;;;;;;19.20;99.90;;;;;;5095759;28;19912;-53
2023/05/04 13:29:02;;;;;;;;;;;19.20;99.90;;;;;;5095726;28;19919;-53
2023/05/04 13:31:28;;;;;;;;;;;18.90;99.90;;;;;;5095803;28;19912;-53
2023/05/04 13:33:53;;;;;;;;;;;19.00;99.90;;;;;;5095798;28;19998;-53
2023/05/04 13:36:19;;;;;;;;;;;19.10;99.90;;;;;;5095582;28;19927;-53
2023/05/04 13:38:45;;;;;;;;;;;19.20;99.90;;;;;;5095510;28;19912;-53
2023/05/04 13:41:11;;;;;;;;;;;19.20;99.90;;;;;;5095466;28;20007;-53
2023/05/04 13:43:37;;;;;;;;;;;19.30;99.90;;;;;;5095328;28;20021;-53
2023/05/04 13:46:03;;;;;;;;;;;19.20;99.90;;;;;;5095442;28;20358;-53
2023/05/04 13:48:31;;;;;;;;;;;19.30;99.00;;;;;;5095585;28;19916;-53
2023/05/04 13:50:57;;;;;;;;;;;19.30;99.90;;;;;;5095393;28;20312;-53
2023/05/04 13:53:23;;;;;;;;;;;19.40;99.30;;;;;;5095202;28;19922;-53
2023/05/04 13:55:49;;;;;;;;;;;19.30;99.90;;;;;;5095312;28;19924;-53
2023/05/04 13:58:15;;;;;;;;;;;19.40;99.90;;;;;;5095237;28;20385;-53
2023/05/04 14:00:41;;;;;;;;;;;19.30;99.90;;;;;;5095278;28;20450;-53
2023/05/04 14:03:07;;;;;;;;;;;19.40;99.90;;;;;;5095228;28;19916;-53
2023/05/04 14:05:34;;;;;;;;;;;19.70;99.90;;;;;;5095200;28;19914;-53
2023/05/04 14:08:00;;;;;;;;;;;19.80;98.90;;;;;;5095355;28;19913;-54
2023/05/04 14:10:26;;;;;;;;;;;19.80;98.90;;;;;;5094910;28;20400;-54
2023/05/04 14:12:51;;;;;;;;;;;19.90;99.60;;;;;;5095090;28;20324;-53
2023/05/04 14:15:21;;;;;;;;;;;19.40;98.90;;;;;;5095104;28;19912;-53